sensor_id;sensor_type;location;lat;lon;timestamp;P1;P2;P0
50041;PMS7003;44598;51.606;5.912;2024-01-27T00:12:48;8.53;9.17;4.8
50041;PMS7003;44598;51.606;5.912;2024-01-27T00:26:07;10.45;9.82;5.02
50041;PMS7003;44598;51.606;5.912;2024-01-27T00:39:27;8.77;9.17;4.8
50041;PMS7003;44598;51.606;5.912;2024-01-27T00:52:47;9.25;10.36;5.02
50041;PMS7003;44598;51.606;5.912;2024-01-27T01:19:26;9.25;9.71;4.59
50041;PMS7003;44598;51.606;5.912;2024-01-27T01:32:45;11.05;10.58;5.13
50041;PMS7003;44598;51.606;5.912;2024-01-27T01:46:05;10.21;11.02;5.35
50041;PMS7003;44598;51.606;5.912;2024-01-27T01:59:25;9.49;9.93;5.13
50041;PMS7003;44598;51.606;5.912;2024-01-27T02:12:44;9.13;10.58;5.24
50041;PMS7003;44598;51.606;5.912;2024-01-27T02:26:04;13.33;11.35;6.44
50041;PMS7003;44598;51.606;5.912;2024-01-27T02:39:24;13.57;13.31;6.66
50041;PMS7003;44598;51.606;5.912;2024-01-27T03:06:03;13.57;14.62;7.64
50041;PMS7003;44598;51.606;5.912;2024-01-27T03:19:22;15.61;14.4;7.64
50041;PMS7003;44598;51.606;5.912;2024-01-27T03:32:42;15.97;16.25;8.95
50041;PMS7003;44598;51.606;5.912;2024-01-27T03:46:02;17.05;17.45;8.95
50041;PMS7003;44598;51.606;5.912;2024-01-27T03:59:21;18.61;15.71;8.29
50041;PMS7003;44598;51.606;5.912;2024-01-27T04:12:41;15.25;15.71;8.4
50041;PMS7003;44598;51.606;5.912;2024-01-27T04:52:40;15.61;14.83;8.29
50041;PMS7003;44598;51.606;5.912;2024-01-27T05:06:00;14.17;15.16;8.08
50041;PMS7003;44598;51.606;5.912;2024-01-27T05:19:19;14.89;14.4;8.62
50041;PMS7003;44598;51.606;5.912;2024-01-27T05:32:39;15.97;15.27;8.62
50041;PMS7003;44598;51.606;5.912;2024-01-27T05:45:59;16.21;16.8;9.17
50041;PMS7003;44598;51.606;5.912;2024-01-27T05:59:18;18.61;18.43;10.15
50041;PMS7003;44598;51.606;5.912;2024-01-27T06:25:58;18.25;18.43;10.04
50041;PMS7003;44598;51.606;5.912;2024-01-27T06:39:17;19.81;18.1;10.04
50041;PMS7003;44598;51.606;5.912;2024-01-27T06:52:37;20.29;19.19;10.58
50041;PMS7003;44598;51.606;5.912;2024-01-27T07:05:56;20.05;19.74;10.69
50041;PMS7003;44598;51.606;5.912;2024-01-27T07:19:16;23.05;20.39;11.45
50041;PMS7003;44598;51.606;5.912;2024-01-27T07:32:36;23.53;21.26;11.89
50041;PMS7003;44598;51.606;5.912;2024-01-27T08:12:35;21.97;21.05;11.45
50041;PMS7003;44598;51.606;5.912;2024-01-27T08:25:54;24.13;21.59;11.67
50041;PMS7003;44598;51.606;5.912;2024-01-27T08:39:14;23.89;20.94;11.78
50041;PMS7003;44598;51.606;5.912;2024-01-27T08:52:34;23.89;21.16;11.45
50041;PMS7003;44598;51.606;5.912;2024-01-27T09:05:53;24.01;21.48;11.13
50041;PMS7003;44598;51.606;5.912;2024-01-27T09:19:13;21.85;20.5;10.69
50041;PMS7003;44598;51.606;5.912;2024-01-27T09:32:33;22.09;20.07;11.56
50041;PMS7003;44598;51.606;5.912;2024-01-27T09:59:12;22.81;20.5;11.78
50041;PMS7003;44598;51.606;5.912;2024-01-27T10:12:32;22.57;20.72;11.78
50041;PMS7003;44598;51.606;5.912;2024-01-27T10:25:51;22.45;20.17;11.67
50041;PMS7003;44598;51.606;5.912;2024-01-27T10:39:11;16.57;16.69;8.84
50041;PMS7003;44598;51.606;5.912;2024-01-27T10:52:31;15.25;15.92;8.73
50041;PMS7003;44598;51.606;5.912;2024-01-27T11:05:50;13.81;14.83;7.75
50041;PMS7003;44598;51.606;5.912;2024-01-27T11:19:10;12.13;12.11;6.22
50041;PMS7003;44598;51.606;5.912;2024-01-27T11:32:30;10.93;11.89;6.77
50041;PMS7003;44598;51.606;5.912;2024-01-27T11:45:49;8.77;9.93;5.24
50041;PMS7003;44598;51.606;5.912;2024-01-27T11:59:09;9.73;9.93;4.7
50041;PMS7003;44598;51.606;5.912;2024-01-27T12:12:29;7.45;9.17;4.8
50041;PMS7003;44598;51.606;5.912;2024-01-27T12:25:48;7.93;8.62;4.37
50041;PMS7003;44598;51.606;5.912;2024-01-27T12:39:08;3.85;5.13;2.62
50041;PMS7003;44598;51.606;5.912;2024-01-27T12:52:27;1.2;3.93;2.08
50041;PMS7003;44598;51.606;5.912;2024-01-27T13:05:47;2.04;4.15;1.97
50041;PMS7003;44598;51.606;5.912;2024-01-27T13:19:07;1.92;4.04;2.08
50041;PMS7003;44598;51.606;5.912;2024-01-27T13:45:46;1.44;3.71;1.97
50041;PMS7003;44598;51.606;5.912;2024-01-27T14:12:25;7.69;9.38;4.7
50041;PMS7003;44598;51.606;5.912;2024-01-27T14:25:45;12.61;14.07;9.27
50041;PMS7003;44598;51.606;5.912;2024-01-27T14:39:04;6.13;6.88;3.39
50041;PMS7003;44598;51.606;5.912;2024-01-27T14:52:24;2.52;4.8;2.3
50041;PMS7003;44598;51.606;5.912;2024-01-27T15:19:03;0.96;3.82;1.64
50041;PMS7003;44598;51.606;5.912;2024-01-27T15:45:42;0.36;3.39;1.86
50041;PMS7003;44598;51.606;5.912;2024-01-27T15:59:02;2.88;3.82;1.97
50041;PMS7003;44598;51.606;5.912;2024-01-27T16:12:22;2.28;4.26;2.41
50041;PMS7003;44598;51.606;5.912;2024-01-27T16:25:41;7.45;9.06;4.59
50041;PMS7003;44598;51.606;5.912;2024-01-27T16:39:01;6.25;8.18;4.7
50041;PMS7003;44598;51.606;5.912;2024-01-27T17:05:40;9.37;11.02;4.8
50041;PMS7003;44598;51.606;5.912;2024-01-27T17:19:00;17.29;17.23;7.86
50041;PMS7003;44598;51.606;5.912;2024-01-27T17:32:19;18.49;17.34;6.99
50041;PMS7003;44598;51.606;5.912;2024-01-27T17:45:39;9.37;11.13;5.24
50041;PMS7003;44598;51.606;5.912;2024-01-27T17:58:59;7.93;8.84;4.7
50041;PMS7003;44598;51.606;5.912;2024-01-27T18:12:18;7.09;9.06;5.13
50041;PMS7003;44598;51.606;5.912;2024-01-27T18:25:38;26.77;23.34;9.6
50041;PMS7003;44598;51.606;5.912;2024-01-27T19:05:37;18.13;18.76;9.82
50041;PMS7003;44598;51.606;5.912;2024-01-27T19:18:56;29.05;25.19;13.31
50041;PMS7003;44598;51.606;5.912;2024-01-27T19:32:16;15.97;15.81;8.51
50041;PMS7003;44598;51.606;5.912;2024-01-27T19:45:36;15.25;14.83;7.31
50041;PMS7003;44598;51.606;5.912;2024-01-27T19:58:55;17.41;15.92;7.64
50041;PMS7003;44598;51.606;5.912;2024-01-27T20:12:15;16.33;17.23;9.38
50041;PMS7003;44598;51.606;5.912;2024-01-27T20:52:14;20.41;20.07;9.82
50041;PMS7003;44598;51.606;5.912;2024-01-27T21:05:33;17.77;18.65;9.71
50041;PMS7003;44598;51.606;5.912;2024-01-27T21:18:53;26.65;23.77;14.18
50041;PMS7003;44598;51.606;5.912;2024-01-27T21:32:13;14.41;15.71;8.08
50041;PMS7003;44598;51.606;5.912;2024-01-27T21:45:32;21.37;20.07;9.38
50041;PMS7003;44598;51.606;5.912;2024-01-27T21:58:52;11.41;12.65;6.77
50041;PMS7003;44598;51.606;5.912;2024-01-27T22:25:31;18.01;18.43;8.73
50041;PMS7003;44598;51.606;5.912;2024-01-27T22:38:51;14.53;15.6;8.08
50041;PMS7003;44598;51.606;5.912;2024-01-27T23:05:30;25.81;21.16;9.49
50041;PMS7003;44598;51.606;5.912;2024-01-27T23:18:50;11.89;13.42;6.99
50041;PMS7003;44598;51.606;5.912;2024-01-27T23:45:29;16.21;16.14;7.75
50041;PMS7003;44598;51.606;5.912;2024-01-27T23:58:49;16.69;17.56;8.73
